Time;durP1;ratioP1;P1;durP2;ratioP2;P2;SDS_P1;SDS_P2;PMS_P1;PMS_P2;Temp;Humidity;BMP_temperature;BMP_pressure;BME280_temperature;BME280_humidity;BME280_pressure;Samples;Min_cycle;Max_cycle;Signal;HPM_P1;HPM_P2
2021/12/12 00:01:20;;;;;;;11.83;8.23;;;;;;;3.46;89.13;101790.22;5097240;28;20188;-73
2021/12/12 00:03:53;;;;;;;8.37;7.43;;;;;;;3.39;89.26;101781.53;5115518;28;20189;-69
2021/12/12 00:06:30;;;;;;;15.17;8.20;;;;;;;3.45;89.11;101772.94;5116009;28;20177;-69
2021/12/12 00:09:08;;;;;;;10.00;7.20;;;;;;;3.38;89.23;101779.81;5116079;28;20221;-70
2021/12/12 00:11:36;;;;;;;12.03;8.10;;;;;;;3.45;89.08;101789.34;5115628;28;20193;-69
2021/12/12 00:14:15;;;;;;;10.23;7.17;;;;;;;3.48;88.79;101789.34;5097277;28;20200;-71
2021/12/12 00:16:43;;;;;;;8.73;7.00;;;;;;;3.55;88.63;101783.34;5115239;28;20191;-72
2021/12/12 00:19:11;;;;;;;7.63;7.03;;;;;;;3.52;88.30;101774.72;5097195;28;20218;-72
2021/12/12 00:21:40;;;;;;;8.73;7.80;;;;;;;3.58;88.12;101773.03;5114994;28;20206;-73
2021/12/12 00:24:10;;;;;;;7.40;6.57;;;;;;;3.68;87.70;101779.09;5115374;28;20190;-73
2021/12/12 00:26:37;;;;;;;10.33;7.93;;;;;;;3.74;87.60;101780.84;5115689;28;20220;-73
2021/12/12 00:29:05;;;;;;;12.30;6.23;;;;;;;3.65;87.72;101775.63;5096703;28;20617;-73
2021/12/12 00:31:31;;;;;;;7.93;6.93;;;;;;;3.64;87.79;101773.88;5114879;28;20553;-73
2021/12/12 00:33:59;;;;;;;8.63;7.23;;;;;;;3.58;88.00;101773.03;5114949;28;20192;-73
2021/12/12 00:36:27;;;;;;;14.80;6.70;;;;;;;3.63;87.74;101775.59;5114840;28;20187;-73
2021/12/12 00:39:00;;;;;;;8.20;7.33;;;;;;;3.71;87.61;101763.56;5114995;28;20218;-72
2021/12/12 00:41:42;;;;;;;9.00;6.77;;;;;;;3.62;87.58;101766.13;5115359;28;20187;-69
2021/12/12 00:44:11;;;;;;;21.70;7.50;;;;;;;3.70;87.31;101751.47;5080597;28;20187;-69
2021/12/12 00:46:37;;;;;;;7.97;7.20;;;;;;;3.69;87.21;101760.09;5114713;28;20652;-69
2021/12/12 00:49:05;;;;;;;17.87;7.70;;;;;;;3.77;86.94;101752.34;5130386;27;20214;-69
2021/12/12 00:51:35;;;;;;;15.47;6.60;;;;;;;3.71;86.85;101752.31;5114825;28;20247;-69
2021/12/12 00:54:03;;;;;;;20.67;7.27;;;;;;;3.73;86.46;101755.81;5115430;28;20239;-69
2021/12/12 00:56:30;;;;;;;7.20;6.50;;;;;;;3.79;86.16;101754.13;5114481;28;20192;-69
2021/12/12 00:58:57;;;;;;;8.60;7.00;;;;;;;3.86;85.67;101752.41;5114387;28;20690;-70
2021/12/12 01:01:28;;;;;;;9.53;7.00;;;;;;;3.85;85.72;101742.88;5114702;28;20191;-69
2021/12/12 01:04:05;;;;;;;9.90;7.17;;;;;;;3.83;85.60;101748.06;5114330;28;20179;-69
2021/12/12 01:06:32;;;;;;;9.30;8.50;;;;;;;3.80;85.47;101744.63;5114850;28;20180;-69
2021/12/12 01:09:04;;;;;;;8.63;7.33;;;;;;;3.81;85.63;101744.59;5114172;28;20216;-69
2021/12/12 01:11:39;;;;;;;7.20;6.80;;;;;;;3.74;85.90;101742.84;5113369;28;20207;-69
2021/12/12 01:14:10;;;;;;;10.07;7.70;;;;;;;3.71;86.03;101742.84;5114174;28;20178;-69
2021/12/12 01:17:06;;;;;;;10.57;6.97;;;;;;;3.68;85.88;101750.59;5114382;28;20233;-69
2021/12/12 01:19:50;;;;;;;5.53;5.10;;;;;;;3.60;86.60;101739.34;5112053;28;20217;-69
2021/12/12 01:22:31;;;;;;;5.43;5.03;;;;;;;3.64;86.19;101735.91;5114011;28;20188;-69
2021/12/12 01:25:01;;;;;;;6.57;6.00;;;;;;;3.63;86.01;101743.66;5095813;28;20194;-69
2021/12/12 01:27:27;;;;;;;5.70;5.10;;;;;;;3.66;86.01;101738.53;5113602;28;20262;-70
2021/12/12 01:29:54;;;;;;;11.90;5.67;;;;;;;3.83;85.22;101739.44;5114224;28;20236;-69
2021/12/12 01:32:28;;;;;;;14.97;5.20;;;;;;;3.81;85.22;101751.53;5113843;28;20220;-69
2021/12/12 01:34:58;;;;;;;12.33;4.90;;;;;;;3.83;85.01;101752.38;5114486;28;20190;-69
2021/12/12 01:40:12;;;;;;;5.90;5.43;;;;;;;3.82;85.18;101750.66;5114204;28;20165;-72
2021/12/12 01:42:57;;;;;;;5.20;4.70;;;;;;;3.95;84.46;101757.59;5114086;28;20186;-72
2021/12/12 01:45:29;;;;;;;10.23;4.53;;;;;;;4.01;84.51;101741.22;5114607;28;20566;-72
2021/12/12 01:48:02;;;;;;;7.70;4.47;;;;;;;3.96;84.84;101751.56;5113974;28;20212;-72
2021/12/12 01:50:40;;;;;;;8.47;4.70;;;;;;;3.95;84.57;101744.66;5113733;28;20178;-72
2021/12/12 01:53:09;;;;;;;8.30;4.77;;;;;;;3.89;84.53;101744.63;5113615;28;20266;-72
2021/12/12 01:55:44;;;;;;;8.03;4.57;;;;;;;3.94;84.78;101742.06;5113635;28;20186;-72
2021/12/12 01:58:15;;;;;;;8.80;4.63;;;;;;;4.09;84.02;101736.91;5113893;28;20216;-72
2021/12/12 02:00:46;;;;;;;6.83;4.03;;;;;;;4.03;84.19;101735.16;5113644;28;20178;-72
2021/12/12 02:03:16;;;;;;;4.77;4.67;;;;;;;4.12;83.69;101739.50;5114440;28;20165;-72
2021/12/12 02:05:44;;;;;;;5.67;4.83;;;;;;;4.09;83.99;101732.59;5113590;28;20176;-72
2021/12/12 02:08:16;;;;;;;10.27;4.77;;;;;;;4.17;83.67;101740.38;5113639;28;20210;-72
2021/12/12 02:10:54;;;;;;;4.37;4.17;;;;;;;4.12;83.60;101737.75;5113544;28;20172;-72
2021/12/12 02:13:23;;;;;;;8.53;4.63;;;;;;;4.09;84.03;101735.19;5113427;28;20658;-72
2021/12/12 02:15:54;;;;;;;7.00;4.63;;;;;;;4.06;84.29;101735.16;5113775;28;20192;-72
2021/12/12 02:18:30;;;;;;;9.57;4.43;;;;;;;4.07;84.28;101728.25;5113992;28;20215;-72
2021/12/12 02:21:09;;;;;;;5.27;3.73;;;;;;;4.01;84.53;101723.94;5113555;28;20195;-69
2021/12/12 02:35:13;;;;;;;5.33;4.70;;;;;;;4.07;83.93;101731.72;5094367;28;20211;-70
2021/12/12 02:37:41;;;;;;;5.17;4.47;;;;;;;4.24;83.70;101723.09;5117423;28;20183;-69
2021/12/12 02:40:12;;;;;;;4.63;4.33;;;;;;;4.23;83.15;101718.78;5117431;28;20518;-69
2021/12/12 02:42:39;;;;;;;4.43;4.10;;;;;;;4.11;83.47;101717.03;5117698;28;20645;-69
2021/12/12 02:45:08;;;;;;;5.67;4.60;;;;;;;4.17;83.37;101719.63;5099244;28;20186;-69
2021/12/12 02:47:36;;;;;;;4.47;4.17;;;;;;;4.14;83.36;101715.31;5117511;28;20188;-69
2021/12/12 02:50:18;;;;;;;5.47;4.00;;;;;;;4.14;83.59;101715.31;5117204;28;20189;-69
2021/12/12 02:52:49;;;;;;;5.83;4.30;;;;;;;4.19;83.45;101719.63;5117417;28;20205;-69
2021/12/12 02:55:28;;;;;;;6.73;4.87;;;;;;;4.14;83.63;101715.31;5117431;28;20180;-69
2021/12/12 02:57:57;;;;;;;6.23;4.40;;;;;;;4.17;83.51;101711.00;5117352;28;20566;-69
2021/12/12 03:00:29;;;;;;;4.03;3.83;;;;;;;4.25;83.35;101717.06;5116709;28;20192;-69
2021/12/12 03:02:59;;;;;;;8.10;5.23;;;;;;;4.16;83.50;101712.72;5117345;28;20188;-72
2021/12/12 03:05:37;;;;;;;6.73;4.80;;;;;;;4.17;83.48;101716.19;5116884;28;20190;-72
2021/12/12 03:08:04;;;;;;;5.30;4.83;;;;;;;4.23;83.28;101713.59;5116854;28;20208;-69
2021/12/12 03:10:35;;;;;;;4.63;4.33;;;;;;;4.32;83.17;101711.00;5098288;28;20201;-69
2021/12/12 03:13:03;;;;;;;5.57;5.37;;;;;;;4.20;83.28;101708.41;5116475;28;20204;-69
2021/12/12 03:15:34;;;;;;;4.70;4.50;;;;;;;4.27;83.12;101718.78;5116440;28;20195;-69
2021/12/12 03:18:02;;;;;;;4.27;3.77;;;;;;;4.27;83.22;101716.19;5116581;28;20223;-69
2021/12/12 03:20:48;;;;;;;5.03;4.73;;;;;;;4.39;83.01;101712.75;5116791;28;20189;-69
2021/12/12 03:23:22;;;;;;;5.37;5.20;;;;;;;4.46;82.64;101717.06;5116932;28;20600;-69
2021/12/12 03:25:53;;;;;;;11.87;4.83;;;;;;;4.41;82.62;101713.59;5098263;28;20186;-69
2021/12/12 03:28:23;;;;;;;4.50;4.07;;;;;;;4.44;82.48;101711.03;5116468;28;20569;-69
2021/12/12 03:30:53;;;;;;;6.63;4.57;;;;;;;4.47;82.62;101702.38;5116451;28;20181;-69
2021/12/12 03:33:21;;;;;;;6.13;4.73;;;;;;;4.45;82.69;101709.28;5116339;28;20211;-69
2021/12/12 03:35:51;;;;;;;6.13;5.73;;;;;;;4.46;83.01;101703.22;5115735;28;20281;-69
2021/12/12 03:38:18;;;;;;;4.40;4.07;;;;;;;4.46;83.22;101701.50;5097712;28;20220;-70
2021/12/12 03:40:46;;;;;;;8.50;3.77;;;;;;;4.45;83.09;101704.97;5116535;28;20196;-69
2021/12/12 03:43:14;;;;;;;4.00;3.67;;;;;;;4.47;83.03;101708.41;5116478;28;20660;-68
2021/12/12 03:45:44;;;;;;;5.63;4.90;;;;;;;4.49;83.01;101711.88;5115861;28;20195;-68
2021/12/12 03:48:21;;;;;;;9.13;4.23;;;;;;;4.57;82.77;101702.38;5115778;28;20608;-69
2021/12/12 03:50:51;;;;;;;8.70;4.33;;;;;;;4.59;82.73;101700.63;5116115;28;20177;-69
2021/12/12 03:53:17;;;;;;;4.53;3.77;;;;;;;4.52;83.56;101701.50;5115671;28;20207;-68
2021/12/12 03:55:46;;;;;;;5.37;5.03;;;;;;;4.55;83.32;101698.03;5116220;28;20586;-68
2021/12/12 03:58:13;;;;;;;4.13;3.90;;;;;;;4.52;84.18;101701.50;5097456;28;20210;-69
2021/12/12 04:00:56;;;;;;;8.27;4.33;;;;;;;4.54;84.34;101698.91;5097491;28;20195;-69
2021/12/12 04:03:23;;;;;;;4.73;4.43;;;;;;;4.65;84.22;101692.84;5116087;28;20684;-69
2021/12/12 04:05:53;;;;;;;5.10;4.73;;;;;;;4.52;84.82;101706.69;5115496;28;20659;-69
2021/12/12 04:08:29;;;;;;;4.50;4.13;;;;;;;4.48;85.56;101702.34;5115779;28;20211;-69
2021/12/12 04:10:55;;;;;;;6.50;4.33;;;;;;;4.51;85.29;101699.78;5116012;28;20188;-72
2021/12/12 04:13:22;;;;;;;5.40;4.50;;;;;;;4.50;85.62;101708.44;5115257;28;20205;-72
2021/12/12 04:15:50;;;;;;;4.17;3.87;;;;;;;4.65;85.44;101700.63;5115286;28;20659;-72
2021/12/12 04:18:23;;;;;;;7.37;3.77;;;;;;;4.52;86.10;101701.50;5115068;28;20686;-72
2021/12/12 04:20:51;;;;;;;4.77;4.47;;;;;;;4.46;86.58;101703.22;5115082;28;20212;-72
2021/12/12 04:23:20;;;;;;;4.90;3.93;;;;;;;4.53;86.72;101703.22;5096919;28;20191;-72
2021/12/12 04:25:48;;;;;;;9.93;3.67;;;;;;;4.63;86.64;101704.06;5115086;28;20184;-72
2021/12/12 04:28:16;;;;;;;3.93;3.73;;;;;;;4.55;86.79;101711.00;5114963;28;20621;-72
2021/12/12 04:30:43;;;;;;;4.00;3.90;;;;;;;4.49;87.28;101705.81;5115282;28;20193;-72
2021/12/12 04:33:10;;;;;;;4.30;3.83;;;;;;;4.55;87.09;101705.81;5114887;28;20211;-72
2021/12/12 04:35:37;;;;;;;3.87;3.60;;;;;;;4.45;87.45;101704.97;5114882;28;20527;-72
2021/12/12 04:38:05;;;;;;;6.57;3.67;;;;;;;4.45;87.55;101704.97;5115208;28;20205;-72
2021/12/12 04:40:35;;;;;;;5.53;3.70;;;;;;;4.49;87.53;101706.66;5114806;28;20192;-73
2021/12/12 04:43:03;;;;;;;7.17;4.43;;;;;;;4.50;87.50;101707.53;5114761;28;20195;-73
2021/12/12 04:46:05;;;;;;;4.77;4.40;;;;;;;4.48;87.74;101710.13;5114974;28;20546;-73
2021/12/12 04:51:37;;;;;;;4.10;3.90;;;;;;;4.62;86.77;101705.81;5114949;28;20172;-72
2021/12/12 04:54:24;;;;;;;4.47;3.63;;;;;;;4.59;87.07;101703.22;5115076;28;20201;-72
2021/12/12 04:57:03;;;;;;;4.90;3.73;;;;;;;4.60;87.33;101697.16;5114532;28;20187;-69
2021/12/12 05:00:08;;;;;;;9.33;4.03;;;;;;;4.52;87.93;101698.06;5096896;28;20223;-72
2021/12/12 05:03:04;;;;;;;4.60;4.30;;;;;;;4.55;88.01;101696.31;5112345;28;20294;-73
2021/12/12 05:05:39;;;;;;;6.20;4.40;;;;;;;4.52;88.67;101692.88;5106160;28;20208;-73
2021/12/12 05:08:11;;;;;;;7.73;4.43;;;;;;;4.53;89.28;101703.22;5114476;28;20223;-72
2021/12/12 05:10:44;;;;;;;7.67;4.27;;;;;;;4.54;89.73;101709.28;5114866;28;20184;-72
2021/12/12 05:13:20;;;;;;;4.80;3.57;;;;;;;4.51;90.07;101704.09;5114765;28;20190;-73
2021/12/12 05:15:52;;;;;;;4.13;3.67;;;;;;;4.48;90.85;101699.75;5114755;28;20177;-73
2021/12/12 05:18:47;;;;;;;7.37;3.43;;;;;;;4.50;90.97;101699.75;5114630;28;20205;-69
2021/12/12 05:21:16;;;;;;;7.67;4.20;;;;;;;4.42;91.79;101687.66;5114221;28;20200;-69
2021/12/12 05:23:49;;;;;;;7.53;4.63;;;;;;;4.38;92.32;101698.06;5114297;28;20177;-69
2021/12/12 05:26:25;;;;;;;16.20;5.13;;;;;;;4.30;92.88;101690.28;5113968;28;20192;-72
2021/12/12 05:29:02;;;;;;;5.00;4.37;;;;;;;4.29;93.20;101690.28;5114233;28;20265;-69
2021/12/12 05:31:30;;;;;;;4.43;4.23;;;;;;;4.28;93.44;101684.22;5114259;28;20170;-69
2021/12/12 05:33:57;;;;;;;4.97;4.50;;;;;;;4.34;93.52;101681.63;5113852;28;20208;-73
2021/12/12 05:36:27;;;;;;;4.90;4.50;;;;;;;4.28;93.78;101679.03;5095610;28;20211;-73
2021/12/12 05:38:57;;;;;;;4.27;4.10;;;;;;;4.24;94.33;101679.03;5113889;28;20221;-69
2021/12/12 05:41:24;;;;;;;7.87;4.97;;;;;;;4.32;94.25;101674.72;5114119;28;20173;-70
2021/12/12 05:43:55;;;;;;;9.33;4.70;;;;;;;4.16;94.98;101673.84;5114077;28;20177;-70
2021/12/12 05:46:23;;;;;;;8.43;5.13;;;;;;;4.25;94.87;101666.06;5114071;28;20515;-70
2021/12/12 05:48:51;;;;;;;13.87;5.20;;;;;;;4.27;94.70;101668.66;5113677;28;20294;-70
2021/12/12 05:51:21;;;;;;;5.30;4.90;;;;;;;4.24;94.84;101664.34;5114258;28;20191;-69
2021/12/12 05:53:50;;;;;;;9.00;5.07;;;;;;;4.23;95.00;101665.22;5113617;28;20218;-69
2021/12/12 05:56:21;;;;;;;5.43;4.70;;;;;;;4.35;94.72;101659.16;5113693;28;20188;-69
2021/12/12 05:58:49;;;;;;;7.63;5.97;;;;;;;4.25;94.94;101654.84;5116103;28;20215;-74
2021/12/12 06:01:16;;;;;;;5.83;5.23;;;;;;;4.25;95.22;101655.72;5117948;28;20589;-73
2021/12/12 06:03:46;;;;;;;7.20;5.80;;;;;;;4.20;95.41;101661.75;5117897;28;20185;-70
2021/12/12 06:06:17;;;;;;;4.80;4.60;;;;;;;4.16;95.74;101660.03;5117835;28;20185;-73
2021/12/12 06:08:45;;;;;;;13.27;5.83;;;;;;;4.28;95.55;101667.78;5117758;28;20201;-73
2021/12/12 06:11:16;;;;;;;6.97;6.23;;;;;;;4.33;95.19;101674.72;5118011;28;20188;-73
2021/12/12 06:13:44;;;;;;;5.20;4.80;;;;;;;4.26;95.54;101675.56;5117939;28;20201;-73
2021/12/12 06:16:18;;;;;;;10.03;5.00;;;;;;;4.33;95.30;101679.03;5117906;28;20188;-73
2021/12/12 06:18:48;;;;;;;5.20;4.90;;;;;;;4.32;95.38;101674.72;5117699;28;20206;-72
2021/12/12 06:21:14;;;;;;;5.03;4.80;;;;;;;4.27;95.68;101685.06;5118232;28;20658;-72
2021/12/12 06:23:41;;;;;;;5.50;5.10;;;;;;;4.27;95.90;101679.03;5118025;28;20232;-69
2021/12/12 06:26:08;;;;;;;6.53;4.67;;;;;;;4.26;96.19;101688.53;5117735;28;20673;-69
2021/12/12 06:28:38;;;;;;;4.80;4.60;;;;;;;4.40;95.99;101681.63;5117614;28;20216;-69
2021/12/12 06:31:07;;;;;;;5.20;4.93;;;;;;;4.40;96.15;101670.38;5117934;28;20173;-69
2021/12/12 06:33:37;;;;;;;6.50;5.17;;;;;;;4.44;96.08;101676.44;5117539;28;20198;-69
2021/12/12 06:36:06;;;;;;;8.63;5.00;;;;;;;4.40;96.10;101681.63;5117279;28;20237;-69
2021/12/12 06:38:36;;;;;;;5.43;5.03;;;;;;;4.44;96.40;101671.25;5117110;28;20692;-69
2021/12/12 06:41:04;;;;;;;6.30;5.33;;;;;;;4.50;96.08;101677.31;5117389;28;20192;-72
2021/12/12 06:43:33;;;;;;;11.67;6.00;;;;;;;4.50;95.85;101682.50;5117117;28;20185;-73
2021/12/12 06:46:00;;;;;;;5.80;5.23;;;;;;;4.55;95.84;101679.88;5117367;28;20175;-69
2021/12/12 06:48:27;;;;;;;5.27;4.73;;;;;;;4.54;96.03;101676.44;5116933;28;20204;-69
2021/12/12 06:50:56;;;;;;;5.10;4.93;;;;;;;4.48;96.04;101667.78;5117271;28;20180;-69
2021/12/12 06:53:29;;;;;;;9.13;5.30;;;;;;;4.45;96.51;101671.25;5116869;28;20210;-72
2021/12/12 06:55:57;;;;;;;5.57;4.97;;;;;;;4.59;96.36;101666.91;5099742;28;20561;-73
2021/12/12 06:58:26;;;;;;;4.97;4.60;;;;;;;4.54;96.36;101654.81;5116764;28;20210;-73
2021/12/12 07:00:57;;;;;;;4.50;4.40;;;;;;;4.50;96.52;101656.56;5117059;28;20710;-73
2021/12/12 07:03:27;;;;;;;4.43;4.33;;;;;;;4.55;96.69;101672.97;5117281;28;20181;-73
2021/12/12 07:05:53;;;;;;;4.57;4.37;;;;;;;4.59;96.39;101672.09;5116644;28;20189;-73
2021/12/12 07:08:22;;;;;;;4.33;4.17;;;;;;;4.70;96.07;101678.13;5116535;28;20214;-69
2021/12/12 07:10:49;;;;;;;5.40;5.30;;;;;;;4.67;96.03;101670.38;5115239;28;20188;-69
2021/12/12 07:13:17;;;;;;;5.17;4.87;;;;;;;4.66;96.01;101660.84;5116808;28;20204;-72
2021/12/12 07:15:48;;;;;;;7.33;5.23;;;;;;;4.66;96.24;101657.41;5117105;28;20181;-73
2021/12/12 07:18:19;;;;;;;5.13;5.03;;;;;;;4.68;96.36;101660.84;5116354;28;20213;-69
2021/12/12 07:20:48;;;;;;;7.60;4.77;;;;;;;4.66;96.10;101667.78;5116612;28;20214;-69
2021/12/12 07:23:15;;;;;;;5.77;4.83;;;;;;;4.73;96.01;101676.41;5116344;28;20190;-72
2021/12/12 07:25:43;;;;;;;5.20;4.90;;;;;;;4.83;95.83;101672.91;5116567;28;20543;-72
2021/12/12 07:28:10;;;;;;;5.83;5.23;;;;;;;4.79;96.38;101655.66;5116116;28;20208;-69
2021/12/12 07:30:38;;;;;;;5.37;4.77;;;;;;;4.77;96.48;101663.41;5116164;28;20188;-69
2021/12/12 07:33:05;;;;;;;4.20;4.07;;;;;;;4.82;96.26;101679.84;5116251;28;20728;-69
2021/12/12 07:35:34;;;;;;;4.97;4.70;;;;;;;4.80;95.98;101671.22;5116275;28;20193;-69
2021/12/12 07:38:02;;;;;;;7.23;4.63;;;;;;;4.87;96.03;101678.09;5116460;28;20267;-69
2021/12/12 07:40:28;;;;;;;5.63;5.13;;;;;;;4.87;96.06;101667.72;5116341;28;20176;-72
2021/12/12 07:42:56;;;;;;;5.90;4.87;;;;;;;4.89;96.17;101659.94;5115994;28;20579;-73
2021/12/12 07:45:23;;;;;;;4.67;4.47;;;;;;;4.91;95.61;101656.47;5116201;28;20172;-69
2021/12/12 07:47:53;;;;;;;4.67;4.50;;;;;;;4.91;95.90;101668.56;5097851;28;20292;-70
2021/12/12 07:50:22;;;;;;;4.40;4.27;;;;;;;4.83;95.89;101667.72;5116120;28;20181;-72
2021/12/12 07:52:51;;;;;;;8.57;4.83;;;;;;;4.90;95.82;101669.44;5116527;28;20201;-72
2021/12/12 07:55:18;;;;;;;5.17;5.07;;;;;;;4.89;96.08;101670.31;5116668;28;20184;-70
2021/12/12 07:57:44;;;;;;;4.47;4.23;;;;;;;4.97;95.71;101678.94;5116378;28;20180;-73
2021/12/12 08:00:17;;;;;;;5.47;5.33;;;;;;;4.94;95.82;101682.41;5115859;28;20186;-72
2021/12/12 08:02:46;;;;;;;5.03;4.90;;;;;;;4.96;96.09;101685.88;5080823;28;20640;-70
2021/12/12 08:05:17;;;;;;;3.77;3.77;;;;;;;4.97;96.06;101681.53;5098530;28;20176;-72
2021/12/12 08:07:45;;;;;;;5.03;4.60;;;;;;;5.01;96.11;101678.06;5097351;28;20194;-70
2021/12/12 08:10:16;;;;;;;5.10;4.63;;;;;;;4.96;96.14;101677.22;5097334;28;20197;-72
2021/12/12 08:12:43;;;;;;;5.57;5.07;;;;;;;5.03;96.30;101693.63;5097077;28;20209;-69
2021/12/12 08:15:15;;;;;;;4.57;4.40;;;;;;;4.99;96.46;101700.56;5115720;28;20172;-72
2021/12/12 08:17:42;;;;;;;4.00;3.90;;;;;;;5.05;96.24;101712.66;5115409;28;20192;-72
2021/12/12 08:20:13;;;;;;;6.07;4.40;;;;;;;5.06;96.26;101724.75;5115612;28;20204;-70
2021/12/12 08:22:40;;;;;;;4.90;4.70;;;;;;;5.08;96.38;101723.91;5115124;28;20650;-72
2021/12/12 08:25:10;;;;;;;5.13;4.60;;;;;;;5.10;96.29;101722.16;5115373;28;20550;-70
2021/12/12 08:27:37;;;;;;;4.47;4.37;;;;;;;5.04;96.71;101732.56;5115380;28;20570;-70
2021/12/12 08:30:05;;;;;;;4.70;4.50;;;;;;;5.08;96.94;101734.28;5115246;28;20195;-72
2021/12/12 08:32:32;;;;;;;5.50;5.10;;;;;;;5.07;96.68;101736.88;5115241;28;20189;-72
2021/12/12 08:35:09;;;;;;;4.40;4.30;;;;;;;5.14;96.67;101739.47;5114968;28;20183;-72
2021/12/12 08:37:36;;;;;;;4.93;4.83;;;;;;;5.08;96.74;101744.69;5115286;28;20180;-69
2021/12/12 08:40:05;;;;;;;4.03;3.93;;;;;;;5.20;96.64;101747.22;5114800;28;20547;-69
2021/12/12 08:42:34;;;;;;;4.90;3.97;;;;;;;5.21;96.82;101735.09;5114858;28;20188;-72
2021/12/12 08:45:07;;;;;;;4.67;4.57;;;;;;;5.13;97.12;101737.72;5115279;28;20189;-73
2021/12/12 08:47:35;;;;;;;4.43;4.23;;;;;;;5.20;97.00;101742.03;5115208;28;20173;-72
2021/12/12 08:50:05;;;;;;;4.33;4.23;;;;;;;5.23;96.97;101747.22;5114647;28;20204;-72
2021/12/12 08:52:38;;;;;;;4.33;4.20;;;;;;;5.31;96.75;101736.81;5114403;28;20193;-72
2021/12/12 08:55:14;;;;;;;5.23;5.00;;;;;;;5.25;97.07;101732.50;5114733;28;20650;-72
2021/12/12 08:57:52;;;;;;;5.23;4.80;;;;;;;5.42;97.05;101747.16;5114302;28;20182;-69
2021/12/12 09:00:32;;;;;;;5.70;5.37;;;;;;;5.37;97.04;101746.34;5114974;28;20612;-69
2021/12/12 09:02:59;;;;;;;4.87;4.77;;;;;;;5.38;96.99;101743.72;5114382;28;20553;-69
2021/12/12 09:05:32;;;;;;;5.20;4.93;;;;;;;5.36;97.08;101744.56;5114684;28;20188;-75
2021/12/12 09:08:23;;;;;;;4.83;4.73;;;;;;;5.35;97.13;101750.63;5114282;28;20333;-72
2021/12/12 09:11:04;;;;;;;5.07;4.87;;;;;;;5.30;97.24;101749.81;5114543;28;20173;-70
2021/12/12 09:13:45;;;;;;;4.87;4.77;;;;;;;5.41;97.47;101763.59;5114418;28;20193;-73
2021/12/12 09:16:22;;;;;;;4.63;4.53;;;;;;;5.47;97.39;101763.59;5114578;28;20184;-73
2021/12/12 09:18:58;;;;;;;5.77;5.67;;;;;;;5.45;97.34;101757.56;5114330;28;20243;-69
2021/12/12 09:21:48;;;;;;;6.60;6.10;;;;;;;5.48;97.48;101757.53;5114123;28;20196;-69
2021/12/12 09:24:46;;;;;;;6.90;6.43;;;;;;;5.46;97.40;101769.66;5114073;28;20515;-73
2021/12/12 09:27:35;;;;;;;6.17;5.77;;;;;;;5.58;97.72;101767.03;5106560;28;20610;-69
2021/12/12 09:30:10;;;;;;;5.97;5.83;;;;;;;5.61;97.50;101777.41;5114213;28;20619;-72
2021/12/12 09:32:48;;;;;;;6.17;6.03;;;;;;;5.63;97.71;101774.78;5113249;28;20172;-72
2021/12/12 09:35:22;;;;;;;6.27;5.43;;;;;;;5.64;97.82;101772.19;5096493;28;20662;-69
2021/12/12 09:38:06;;;;;;;6.20;6.00;;;;;;;5.71;97.80;101778.22;5096336;28;20743;-73
2021/12/12 09:41:30;;;;;;;5.73;5.63;;;;;;;5.72;97.76;101773.03;5114295;28;20169;-70
2021/12/12 09:44:24;;;;;;;10.50;6.03;;;;;;;5.72;97.57;101777.38;5031732;28;20192;-70
2021/12/12 09:47:30;;;;;;;6.20;5.90;;;;;;;5.74;97.80;101773.88;5031659;28;20183;-68
2021/12/12 09:53:28;;;;;;;6.67;6.27;;;;;;;5.73;98.17;101779.97;5114132;28;20260;-72
2021/12/12 09:56:19;;;;;;;7.07;6.63;;;;;;;5.78;97.71;101772.97;5114159;28;20185;-73
2021/12/12 09:58:59;;;;;;;7.67;7.07;;;;;;;5.81;97.90;101777.31;5114165;28;20209;-70
2021/12/12 10:01:40;;;;;;;8.80;6.73;;;;;;;5.78;97.84;101772.97;5114216;28;20166;-72
2021/12/12 10:04:18;;;;;;;7.67;7.17;;;;;;;5.86;97.89;101772.97;5114090;28;20552;-72
2021/12/12 10:06:52;;;;;;;7.97;7.37;;;;;;;5.87;97.83;101773.84;5096129;28;20169;-70
2021/12/12 10:09:29;;;;;;;6.93;6.63;;;;;;;5.89;97.86;101766.88;5113826;28;20314;-70
2021/12/12 10:12:20;;;;;;;7.13;6.87;;;;;;;5.90;97.75;101772.06;5113986;28;20189;-69
2021/12/12 10:14:51;;;;;;;8.43;7.87;;;;;;;5.91;97.66;101770.38;5114693;28;20200;-69
2021/12/12 10:17:31;;;;;;;7.50;7.23;;;;;;;5.93;97.71;101779.00;5114263;28;20184;-70
2021/12/12 10:20:04;;;;;;;12.10;8.20;;;;;;;5.97;97.39;101767.75;5113641;28;20212;-72
2021/12/12 10:22:46;;;;;;;7.83;7.23;;;;;;;6.01;97.49;101764.25;5113396;28;20193;-69
2021/12/12 10:25:17;;;;;;;8.23;7.57;;;;;;;6.07;97.58;101770.28;5095578;28;20181;-72
2021/12/12 10:27:45;;;;;;;7.93;7.43;;;;;;;6.02;97.53;101781.59;5113324;28;20217;-72
2021/12/12 10:30:20;;;;;;;10.20;9.23;;;;;;;6.13;97.72;101771.97;5113823;28;20282;-72
2021/12/12 10:33:12;;;;;;;9.53;8.83;;;;;;;6.10;97.70;101772.00;5113773;28;20534;-73
2021/12/12 10:35:47;;;;;;;9.97;8.93;;;;;;;6.11;97.56;101778.94;5113680;28;20177;-73
2021/12/12 10:38:19;;;;;;;10.27;9.37;;;;;;;6.14;97.89;101778.03;5113399;28;20211;-70
2021/12/12 10:40:57;;;;;;;8.40;7.73;;;;;;;6.14;97.90;101778.91;5114007;28;20531;-72
2021/12/12 10:43:30;;;;;;;9.47;8.50;;;;;;;6.20;97.81;101773.66;5095957;28;20188;-70
2021/12/12 10:46:07;;;;;;;8.93;8.07;;;;;;;6.27;97.55;101772.75;5117069;28;20193;-72
2021/12/12 10:48:55;;;;;;;7.93;7.47;;;;;;;6.27;97.65;101770.16;5117226;28;20209;-70
2021/12/12 10:51:23;;;;;;;7.00;6.77;;;;;;;6.21;97.66;101769.31;5116983;28;20654;-70
2021/12/12 10:54:01;;;;;;;7.73;7.23;;;;;;;6.23;97.73;101772.78;5116960;28;20206;-69
2021/12/12 10:56:41;;;;;;;8.00;7.50;;;;;;;6.31;97.58;101768.41;5116992;28;20219;-70
2021/12/12 10:59:21;;;;;;;7.37;6.97;;;;;;;6.25;97.51;101771.91;5099183;28;20209;-72
2021/12/12 11:01:52;;;;;;;7.67;6.53;;;;;;;6.27;97.79;101767.53;5117099;28;20172;-72
2021/12/12 11:04:24;;;;;;;8.23;7.43;;;;;;;6.27;97.66;101775.34;5117061;28;20166;-72
2021/12/12 11:06:58;;;;;;;7.03;6.43;;;;;;;6.27;97.84;101767.53;5116702;28;20184;-69
2021/12/12 11:09:45;;;;;;;6.77;6.23;;;;;;;6.32;97.68;101772.72;5116645;28;20208;-69
2021/12/12 11:12:26;;;;;;;6.50;6.30;;;;;;;6.32;97.68;101767.53;5116930;28;20234;-69
2021/12/12 11:15:02;;;;;;;6.30;6.10;;;;;;;6.39;97.63;101764.00;5116839;28;20205;-69
2021/12/12 11:17:35;;;;;;;6.37;6.07;;;;;;;6.32;97.48;101764.94;5116824;28;20184;-69
2021/12/12 11:20:32;;;;;;;5.97;5.80;;;;;;;6.39;97.74;101769.22;5116717;28;20246;-69
2021/12/12 11:23:08;;;;;;;5.93;5.73;;;;;;;6.41;97.50;101762.25;5082225;28;20197;-69
2021/12/12 11:25:42;;;;;;;5.63;5.40;;;;;;;6.35;97.88;101757.94;5116664;28;20280;-69
2021/12/12 11:28:19;;;;;;;5.80;5.70;;;;;;;6.34;97.52;101757.97;5116546;28;20701;-69
2021/12/12 11:30:52;;;;;;;6.13;5.73;;;;;;;6.44;97.43;101764.84;5116557;28;20230;-70
2021/12/12 11:33:21;;;;;;;5.07;4.87;;;;;;;6.40;97.63;101757.94;5117107;28;20181;-70
2021/12/12 11:35:53;;;;;;;5.80;5.50;;;;;;;6.44;97.55;101759.66;5116349;28;20581;-69
2021/12/12 11:38:39;;;;;;;4.90;4.80;;;;;;;6.37;97.77;101752.75;5116372;28;20558;-70
2021/12/12 11:41:28;;;;;;;5.30;5.20;;;;;;;6.42;97.90;101763.97;5116498;28;20266;-69
2021/12/12 11:44:13;;;;;;;5.83;5.53;;;;;;;6.48;97.69;101760.47;5116518;28;20169;-72
2021/12/12 11:47:06;;;;;;;4.90;4.80;;;;;;;6.53;97.95;101766.50;5116651;28;20213;-72
2021/12/12 11:49:38;;;;;;;5.63;5.23;;;;;;;6.54;97.84;101765.63;5116046;28;20208;-70
2021/12/12 11:52:09;;;;;;;5.90;5.10;;;;;;;6.62;97.62;101761.22;5097554;28;20201;-69
2021/12/12 11:55:20;;;;;;;4.73;4.63;;;;;;;6.54;97.73;101760.44;5115935;28;20655;-69
2021/12/12 11:57:55;;;;;;;6.60;4.63;;;;;;;6.62;98.00;101761.22;5107147;28;20209;-70
2021/12/12 12:00:28;;;;;;;5.13;5.13;;;;;;;6.58;98.01;101757.81;5115688;28;20166;-70
2021/12/12 12:03:09;;;;;;;5.20;5.10;;;;;;;6.63;97.81;101765.53;5115632;28;20583;-72
2021/12/12 12:05:42;;;;;;;6.23;5.83;;;;;;;6.60;97.92;101768.19;5115527;28;20226;-70
2021/12/12 12:08:21;;;;;;;7.77;5.77;;;;;;;6.75;97.74;101770.66;5116036;28;20252;-72
2021/12/12 12:10:47;;;;;;;6.60;6.10;;;;;;;6.76;97.84;101774.97;5115986;28;20181;-72
2021/12/12 12:13:17;;;;;;;5.10;5.00;;;;;;;6.79;97.74;101779.31;5097153;28;20189;-70
2021/12/12 12:15:59;;;;;;;5.43;5.33;;;;;;;6.81;97.77;101769.75;5115501;28;20209;-70
2021/12/12 12:18:34;;;;;;;5.93;5.83;;;;;;;6.89;97.60;101766.19;5115517;28;20208;-69
2021/12/12 12:21:13;;;;;;;6.20;5.60;;;;;;;6.88;97.70;101774.03;5115320;28;20234;-69